sensor_id;sensor_type;location;lat;lon;timestamp;P1;durP1;ratioP1;P2;durP2;ratioP2
75914;SDS011;64593;51.050;13.780;2023-04-03T06:00:35;6.32;;;1.98;;
75914;SDS011;64593;51.050;13.780;2023-04-03T06:05:43;6.45;;;1.92;;
75914;SDS011;64593;51.050;13.780;2023-04-03T06:10:45;5.78;;;1.83;;
75914;SDS011;64593;51.050;13.780;2023-04-03T06:16:12;6.32;;;1.60;;
75914;SDS011;64593;51.050;13.780;2023-04-03T06:21:16;7.22;;;1.83;;
75914;SDS011;64593;51.050;13.780;2023-04-03T06:26:22;7.13;;;1.85;;
75914;SDS011;64593;51.050;13.780;2023-04-03T06:31:26;3.45;;;1.50;;
75914;SDS011;64593;51.050;13.780;2023-04-03T06:36:30;8.23;;;1.75;;
75914;SDS011;64593;51.050;13.780;2023-04-03T06:41:37;7.95;;;1.90;;
75914;SDS011;64593;51.050;13.780;2023-04-03T06:46:38;4.45;;;1.38;;
75914;SDS011;64593;51.050;13.780;2023-04-03T06:51:40;6.03;;;1.65;;
75914;SDS011;64593;51.050;13.780;2023-04-03T06:56:42;7.15;;;2.45;;
75914;SDS011;64593;51.050;13.780;2023-04-03T07:01:44;6.47;;;1.55;;
75914;SDS011;64593;51.050;13.780;2023-04-03T07:06:46;7.43;;;1.48;;
75914;SDS011;64593;51.050;13.780;2023-04-03T07:11:48;6.25;;;2.42;;
75914;SDS011;64593;51.050;13.780;2023-04-03T07:16:50;10.38;;;2.45;;
75914;SDS011;64593;51.050;13.780;2023-04-03T07:21:52;3.42;;;1.20;;
75914;SDS011;64593;51.050;13.780;2023-04-03T07:26:55;8.57;;;2.15;;
75914;SDS011;64593;51.050;13.780;2023-04-03T07:31:59;6.38;;;1.75;;
75914;SDS011;64593;51.050;13.780;2023-04-03T07:37:05;4.57;;;1.75;;
75914;SDS011;64593;51.050;13.780;2023-04-03T07:47:13;8.88;;;1.75;;
75914;SDS011;64593;51.050;13.780;2023-04-03T07:52:17;6.90;;;2.03;;
75914;SDS011;64593;51.050;13.780;2023-04-03T07:57:19;6.55;;;1.83;;
75914;SDS011;64593;51.050;13.780;2023-04-03T08:02:25;5.32;;;2.17;;
75914;SDS011;64593;51.050;13.780;2023-04-03T08:07:28;2.65;;;1.13;;
75914;SDS011;64593;51.050;13.780;2023-04-03T08:12:29;6.93;;;1.67;;
75914;SDS011;64593;51.050;13.780;2023-04-03T08:17:35;1.98;;;0.55;;
75914;SDS011;64593;51.050;13.780;2023-04-03T08:22:37;7.78;;;1.90;;
75914;SDS011;64593;51.050;13.780;2023-04-03T08:27:38;7.78;;;1.58;;
75914;SDS011;64593;51.050;13.780;2023-04-03T08:32:43;6.40;;;1.50;;
75914;SDS011;64593;51.050;13.780;2023-04-03T08:37:45;9.85;;;1.88;;
75914;SDS011;64593;51.050;13.780;2023-04-03T08:48:17;10.65;;;1.70;;
75914;SDS011;64593;51.050;13.780;2023-04-03T08:53:25;5.43;;;1.25;;
75914;SDS011;64593;51.050;13.780;2023-04-03T09:03:50;7.38;;;2.00;;
75914;SDS011;64593;51.050;13.780;2023-04-03T09:24:32;4.82;;;0.85;;
75914;SDS011;64593;51.050;13.780;2023-04-03T09:29:35;4.55;;;1.10;;
75914;SDS011;64593;51.050;13.780;2023-04-03T09:34:46;2.45;;;0.60;;
75914;SDS011;64593;51.050;13.780;2023-04-03T09:39:53;8.65;;;1.67;;
75914;SDS011;64593;51.050;13.780;2023-04-03T09:45:04;4.32;;;1.02;;
75914;SDS011;64593;51.050;13.780;2023-04-03T10:00:30;7.15;;;1.23;;
75914;SDS011;64593;51.050;13.780;2023-04-03T10:05:41;4.85;;;0.77;;
75914;SDS011;64593;51.050;13.780;2023-04-03T10:10:47;4.30;;;1.85;;
75914;SDS011;64593;51.050;13.780;2023-04-03T10:16:03;7.00;;;0.93;;
75914;SDS011;64593;51.050;13.780;2023-04-03T10:26:56;4.55;;;0.70;;
75914;SDS011;64593;51.050;13.780;2023-04-03T10:32:15;3.28;;;0.70;;
75914;SDS011;64593;51.050;13.780;2023-04-03T10:37:25;2.53;;;0.70;;
75914;SDS011;64593;51.050;13.780;2023-04-03T10:42:43;4.90;;;1.00;;
75914;SDS011;64593;51.050;13.780;2023-04-03T10:53:25;4.07;;;0.80;;
75914;SDS011;64593;51.050;13.780;2023-04-03T11:04:35;2.33;;;0.70;;
75914;SDS011;64593;51.050;13.780;2023-04-03T11:09:40;4.43;;;0.98;;
75914;SDS011;64593;51.050;13.780;2023-04-03T11:14:43;1.88;;;0.52;;
75914;SDS011;64593;51.050;13.780;2023-04-03T11:24:56;2.55;;;0.75;;
75914;SDS011;64593;51.050;13.780;2023-04-03T11:30:28;1.85;;;0.70;;
75914;SDS011;64593;51.050;13.780;2023-04-03T11:36:00;1.38;;;0.50;;
75914;SDS011;64593;51.050;13.780;2023-04-03T11:41:50;2.22;;;0.55;;
75914;SDS011;64593;51.050;13.780;2023-04-03T12:09:25;3.10;;;0.90;;
75914;SDS011;64593;51.050;13.780;2023-04-03T12:15:11;1.70;;;0.75;;
75914;SDS011;64593;51.050;13.780;2023-04-03T12:20:56;3.63;;;0.75;;
75914;SDS011;64593;51.050;13.780;2023-04-03T12:26:18;1.75;;;0.80;;
75914;SDS011;64593;51.050;13.780;2023-04-03T12:31:24;6.28;;;0.98;;
75914;SDS011;64593;51.050;13.780;2023-04-03T12:36:39;7.00;;;0.90;;
75914;SDS011;64593;51.050;13.780;2023-04-03T12:47:34;2.47;;;1.05;;
75914;SDS011;64593;51.050;13.780;2023-04-03T12:52:40;4.63;;;0.77;;
75914;SDS011;64593;51.050;13.780;2023-04-03T12:57:48;1.70;;;0.52;;
75914;SDS011;64593;51.050;13.780;2023-04-03T13:02:50;2.05;;;0.93;;
75914;SDS011;64593;51.050;13.780;2023-04-03T13:07:54;3.85;;;0.85;;
75914;SDS011;64593;51.050;13.780;2023-04-03T13:13:09;3.30;;;0.98;;
75914;SDS011;64593;51.050;13.780;2023-04-03T13:18:24;2.88;;;1.00;;
75914;SDS011;64593;51.050;13.780;2023-04-03T13:23:54;5.85;;;0.85;;
75914;SDS011;64593;51.050;13.780;2023-04-03T13:29:39;1.92;;;0.73;;
75914;SDS011;64593;51.050;13.780;2023-04-03T13:35:24;3.10;;;1.58;;
75914;SDS011;64593;51.050;13.780;2023-04-03T13:40:57;3.55;;;0.77;;
75914;SDS011;64593;51.050;13.780;2023-04-03T13:51:38;5.75;;;1.02;;
75914;SDS011;64593;51.050;13.780;2023-04-03T13:56:40;3.72;;;1.10;;
75914;SDS011;64593;51.050;13.780;2023-04-03T14:02:12;1.33;;;0.85;;
75914;SDS011;64593;51.050;13.780;2023-04-03T14:07:41;2.03;;;0.93;;
75914;SDS011;64593;51.050;13.780;2023-04-03T14:12:44;2.05;;;0.75;;
75914;SDS011;64593;51.050;13.780;2023-04-03T14:17:46;3.08;;;0.88;;
75914;SDS011;64593;51.050;13.780;2023-04-03T14:22:48;3.13;;;0.77;;
75914;SDS011;64593;51.050;13.780;2023-04-03T14:28:19;5.22;;;0.70;;
75914;SDS011;64593;51.050;13.780;2023-04-03T14:33:48;4.63;;;0.90;;
75914;SDS011;64593;51.050;13.780;2023-04-03T14:38:50;3.95;;;0.88;;
75914;SDS011;64593;51.050;13.780;2023-04-03T14:43:52;7.00;;;1.13;;
75914;SDS011;64593;51.050;13.780;2023-04-03T14:48:57;3.53;;;0.93;;
75914;SDS011;64593;51.050;13.780;2023-04-03T14:54:24;7.13;;;0.70;;
75914;SDS011;64593;51.050;13.780;2023-04-03T15:04:55;1.30;;;0.57;;
75914;SDS011;64593;51.050;13.780;2023-04-03T15:09:58;2.72;;;0.45;;
75914;SDS011;64593;51.050;13.780;2023-04-03T15:15:42;5.60;;;1.00;;
75914;SDS011;64593;51.050;13.780;2023-04-03T15:20:44;3.72;;;0.90;;
75914;SDS011;64593;51.050;13.780;2023-04-03T15:26:11;4.28;;;0.43;;
75914;SDS011;64593;51.050;13.780;2023-04-03T15:31:13;2.03;;;0.70;;
75914;SDS011;64593;51.050;13.780;2023-04-03T15:36:42;1.10;;;0.40;;
75914;SDS011;64593;51.050;13.780;2023-04-03T15:41:46;2.33;;;0.63;;
75914;SDS011;64593;51.050;13.780;2023-04-03T15:46:48;4.18;;;1.17;;
75914;SDS011;64593;51.050;13.780;2023-04-03T15:51:54;4.43;;;1.23;;
75914;SDS011;64593;51.050;13.780;2023-04-03T15:56:56;2.22;;;0.90;;
75914;SDS011;64593;51.050;13.780;2023-04-03T16:02:00;2.83;;;0.90;;
75914;SDS011;64593;51.050;13.780;2023-04-03T16:07:06;4.13;;;0.98;;
75914;SDS011;64593;51.050;13.780;2023-04-03T16:12:08;2.72;;;0.60;;
75914;SDS011;64593;51.050;13.780;2023-04-03T16:17:36;3.13;;;0.57;;
75914;SDS011;64593;51.050;13.780;2023-04-03T16:23:03;3.20;;;1.20;;
75914;SDS011;64593;51.050;13.780;2023-04-03T16:28:30;3.10;;;0.90;;
75914;SDS011;64593;51.050;13.780;2023-04-03T16:33:32;2.10;;;0.75;;
75914;SDS011;64593;51.050;13.780;2023-04-03T16:38:35;2.28;;;0.75;;
75914;SDS011;64593;51.050;13.780;2023-04-03T16:49:29;2.38;;;0.80;;
75914;SDS011;64593;51.050;13.780;2023-04-03T16:54:59;1.08;;;0.60;;
75914;SDS011;64593;51.050;13.780;2023-04-03T17:00:28;1.85;;;0.65;;
75914;SDS011;64593;51.050;13.780;2023-04-03T17:05:59;1.42;;;0.60;;
75914;SDS011;64593;51.050;13.780;2023-04-03T17:11:26;3.95;;;0.80;;
75914;SDS011;64593;51.050;13.780;2023-04-03T17:16:29;1.73;;;0.68;;
75914;SDS011;64593;51.050;13.780;2023-04-03T17:21:57;2.53;;;0.63;;
75914;SDS011;64593;51.050;13.780;2023-04-03T17:27:24;3.75;;;0.95;;
75914;SDS011;64593;51.050;13.780;2023-04-03T17:32:26;2.10;;;1.05;;
75914;SDS011;64593;51.050;13.780;2023-04-03T17:37:27;2.58;;;0.75;;
75914;SDS011;64593;51.050;13.780;2023-04-03T17:42:54;6.00;;;1.10;;
75914;SDS011;64593;51.050;13.780;2023-04-03T17:47:56;2.40;;;0.60;;
75914;SDS011;64593;51.050;13.780;2023-04-03T17:52:58;2.05;;;0.88;;
75914;SDS011;64593;51.050;13.780;2023-04-03T17:58:01;3.05;;;0.80;;
75914;SDS011;64593;51.050;13.780;2023-04-03T18:03:28;2.58;;;1.00;;
75914;SDS011;64593;51.050;13.780;2023-04-03T18:08:32;2.63;;;1.00;;
75914;SDS011;64593;51.050;13.780;2023-04-03T18:14:03;3.75;;;1.23;;
75914;SDS011;64593;51.050;13.780;2023-04-03T18:19:33;3.80;;;1.55;;
75914;SDS011;64593;51.050;13.780;2023-04-03T18:25:00;6.13;;;1.60;;
75914;SDS011;64593;51.050;13.780;2023-04-03T18:30:27;6.85;;;1.50;;
75914;SDS011;64593;51.050;13.780;2023-04-03T18:35:57;6.10;;;1.60;;
75914;SDS011;64593;51.050;13.780;2023-04-03T18:40:59;6.10;;;2.08;;
75914;SDS011;64593;51.050;13.780;2023-04-03T18:46:05;4.57;;;1.90;;
75914;SDS011;64593;51.050;13.780;2023-04-03T18:51:09;3.83;;;1.67;;
75914;SDS011;64593;51.050;13.780;2023-04-03T18:56:37;5.13;;;1.80;;
75914;SDS011;64593;51.050;13.780;2023-04-03T19:01:39;4.43;;;1.88;;
75914;SDS011;64593;51.050;13.780;2023-04-03T19:06:41;4.70;;;2.10;;
75914;SDS011;64593;51.050;13.780;2023-04-03T19:12:09;5.55;;;2.60;;
75914;SDS011;64593;51.050;13.780;2023-04-03T19:17:11;7.43;;;2.60;;
75914;SDS011;64593;51.050;13.780;2023-04-03T19:22:38;8.07;;;3.03;;
75914;SDS011;64593;51.050;13.780;2023-04-03T19:27:40;7.47;;;2.15;;
75914;SDS011;64593;51.050;13.780;2023-04-03T19:32:42;7.20;;;2.80;;
75914;SDS011;64593;51.050;13.780;2023-04-03T19:38:09;6.60;;;2.83;;
75914;SDS011;64593;51.050;13.780;2023-04-03T19:43:11;7.25;;;2.97;;
75914;SDS011;64593;51.050;13.780;2023-04-03T19:48:13;7.97;;;2.58;;
75914;SDS011;64593;51.050;13.780;2023-04-03T19:53:40;8.55;;;2.72;;
75914;SDS011;64593;51.050;13.780;2023-04-03T19:58:48;6.40;;;2.55;;
75914;SDS011;64593;51.050;13.780;2023-04-03T20:03:54;5.18;;;2.58;;
75914;SDS011;64593;51.050;13.780;2023-04-03T20:09:21;12.82;;;2.97;;
75914;SDS011;64593;51.050;13.780;2023-04-03T20:14:48;7.70;;;2.97;;
75914;SDS011;64593;51.050;13.780;2023-04-03T20:19:49;5.47;;;2.58;;
75914;SDS011;64593;51.050;13.780;2023-04-03T20:24:53;5.10;;;2.10;;
75914;SDS011;64593;51.050;13.780;2023-04-03T20:29:57;4.95;;;2.05;;
75914;SDS011;64593;51.050;13.780;2023-04-03T20:35:01;8.57;;;2.97;;
75914;SDS011;64593;51.050;13.780;2023-04-03T20:40:30;6.32;;;2.30;;
75914;SDS011;64593;51.050;13.780;2023-04-03T20:45:33;7.68;;;2.25;;
75914;SDS011;64593;51.050;13.780;2023-04-03T20:50:38;5.18;;;2.20;;
75914;SDS011;64593;51.050;13.780;2023-04-03T20:56:07;6.32;;;2.25;;
75914;SDS011;64593;51.050;13.780;2023-04-03T21:01:34;6.68;;;2.17;;
75914;SDS011;64593;51.050;13.780;2023-04-03T21:23:29;4.57;;;1.45;;
75914;SDS011;64593;51.050;13.780;2023-04-03T21:28:31;4.82;;;1.85;;
75914;SDS011;64593;51.050;13.780;2023-04-03T21:33:33;3.97;;;1.60;;
75914;SDS011;64593;51.050;13.780;2023-04-03T21:38:39;4.35;;;2.00;;
75914;SDS011;64593;51.050;13.780;2023-04-03T21:43:44;3.90;;;1.70;;
75914;SDS011;64593;51.050;13.780;2023-04-03T21:49:12;4.63;;;1.90;;
75914;SDS011;64593;51.050;13.780;2023-04-03T21:54:14;5.80;;;2.05;;
75914;SDS011;64593;51.050;13.780;2023-04-03T21:59:16;3.72;;;1.75;;
